sensor_id;sensor_type;location;lat;lon;timestamp;temperature;humidity
68842;SHT35;55849;48.482;2.332;2022-07-23T05:18:37;23.24;71.83
68842;SHT35;55849;48.482;2.332;2022-07-23T05:21:39;23.26;71.89
68842;SHT35;55849;48.482;2.332;2022-07-23T05:24:40;23.30;71.88
68842;SHT35;55849;48.482;2.332;2022-07-23T05:27:43;23.30;71.73
68842;SHT35;55849;48.482;2.332;2022-07-23T05:30:44;23.33;71.86
68842;SHT35;55849;48.482;2.332;2022-07-23T05:33:47;23.36;71.73
68842;SHT35;55849;48.482;2.332;2022-07-23T05:36:49;23.37;71.82
68842;SHT35;55849;48.482;2.332;2022-07-23T05:39:51;23.40;71.75
68842;SHT35;55849;48.482;2.332;2022-07-23T05:42:52;23.43;71.82
68842;SHT35;55849;48.482;2.332;2022-07-23T05:45:54;23.47;71.93
68842;SHT35;55849;48.482;2.332;2022-07-23T05:48:57;23.47;71.88
68842;SHT35;55849;48.482;2.332;2022-07-23T05:51:58;23.51;71.67
68842;SHT35;55849;48.482;2.332;2022-07-23T05:55:05;23.53;71.46
68842;SHT35;55849;48.482;2.332;2022-07-23T05:58:06;23.51;71.41
68842;SHT35;55849;48.482;2.332;2022-07-23T06:01:09;23.50;71.53
68842;SHT35;55849;48.482;2.332;2022-07-23T06:04:13;23.54;71.33
68842;SHT35;55849;48.482;2.332;2022-07-23T06:07:14;23.55;71.48
68842;SHT35;55849;48.482;2.332;2022-07-23T06:10:16;23.58;71.42
68842;SHT35;55849;48.482;2.332;2022-07-23T06:13:18;23.57;71.28
68842;SHT35;55849;48.482;2.332;2022-07-23T06:16:20;23.57;71.33
68842;SHT35;55849;48.482;2.332;2022-07-23T06:19:23;23.58;71.23
68842;SHT35;55849;48.482;2.332;2022-07-23T06:22:25;23.61;71.29
68842;SHT35;55849;48.482;2.332;2022-07-23T06:25:26;23.59;71.22
68842;SHT35;55849;48.482;2.332;2022-07-23T06:28:28;23.61;71.31
68842;SHT35;55849;48.482;2.332;2022-07-23T06:31:30;23.65;71.07
68842;SHT35;55849;48.482;2.332;2022-07-23T06:34:33;23.66;70.99
68842;SHT35;55849;48.482;2.332;2022-07-23T06:37:34;23.68;70.83
68842;SHT35;55849;48.482;2.332;2022-07-23T06:40:36;23.68;70.72
68842;SHT35;55849;48.482;2.332;2022-07-23T06:43:37;23.71;70.71
68842;SHT35;55849;48.482;2.332;2022-07-23T06:46:39;23.69;70.63
68842;SHT35;55849;48.482;2.332;2022-07-23T06:49:42;23.71;70.36
68842;SHT35;55849;48.482;2.332;2022-07-23T06:52:44;23.66;70.49
68842;SHT35;55849;48.482;2.332;2022-07-23T06:55:45;23.66;70.16
68842;SHT35;55849;48.482;2.332;2022-07-23T06:58:47;23.65;70.13
68842;SHT35;55849;48.482;2.332;2022-07-23T07:01:49;23.62;70.16
68842;SHT35;55849;48.482;2.332;2022-07-23T07:04:51;23.61;70.04
68842;SHT35;55849;48.482;2.332;2022-07-23T07:07:54;23.61;69.87
68842;SHT35;55849;48.482;2.332;2022-07-23T07:10:55;23.61;70.15
68842;SHT35;55849;48.482;2.332;2022-07-23T07:13:57;23.62;69.77
68842;SHT35;55849;48.482;2.332;2022-07-23T07:16:58;23.61;69.93
68842;SHT35;55849;48.482;2.332;2022-07-23T07:20:02;23.61;69.71
68842;SHT35;55849;48.482;2.332;2022-07-23T07:23:03;23.64;69.91
68842;SHT35;55849;48.482;2.332;2022-07-23T07:26:05;23.64;69.88
68842;SHT35;55849;48.482;2.332;2022-07-23T07:29:07;23.66;69.85
68842;SHT35;55849;48.482;2.332;2022-07-23T07:32:08;23.73;70.14
68842;SHT35;55849;48.482;2.332;2022-07-23T07:35:11;23.78;69.97
68842;SHT35;55849;48.482;2.332;2022-07-23T07:38:13;23.85;69.65
68842;SHT35;55849;48.482;2.332;2022-07-23T07:41:15;23.86;69.22
68842;SHT35;55849;48.482;2.332;2022-07-23T07:44:16;23.89;69.10
68842;SHT35;55849;48.482;2.332;2022-07-23T07:47:18;23.90;68.92
68842;SHT35;55849;48.482;2.332;2022-07-23T07:50:21;23.92;69.02
68842;SHT35;55849;48.482;2.332;2022-07-23T07:53:23;23.93;69.06
68842;SHT35;55849;48.482;2.332;2022-07-23T07:56:25;23.95;68.87
68842;SHT35;55849;48.482;2.332;2022-07-23T07:59:26;23.99;68.97
68842;SHT35;55849;48.482;2.332;2022-07-23T08:02:28;24.02;69.03
68842;SHT35;55849;48.482;2.332;2022-07-23T08:05:31;24.05;68.71
68842;SHT35;55849;48.482;2.332;2022-07-23T08:08:33;24.09;68.43
68842;SHT35;55849;48.482;2.332;2022-07-23T08:11:34;24.13;68.35
68842;SHT35;55849;48.482;2.332;2022-07-23T08:14:36;24.16;68.48
68842;SHT35;55849;48.482;2.332;2022-07-23T08:17:38;24.20;68.43
68842;SHT35;55849;48.482;2.332;2022-07-23T08:20:41;24.25;68.37
68842;SHT35;55849;48.482;2.332;2022-07-23T08:23:42;24.25;67.93
68842;SHT35;55849;48.482;2.332;2022-07-23T08:26:44;24.28;68.08
68842;SHT35;55849;48.482;2.332;2022-07-23T08:29:46;24.33;68.18
68842;SHT35;55849;48.482;2.332;2022-07-23T08:32:52;24.35;68.11
68842;SHT35;55849;48.482;2.332;2022-07-23T08:35:55;24.38;67.67
68842;SHT35;55849;48.482;2.332;2022-07-23T08:38:57;24.45;68.19
68842;SHT35;55849;48.482;2.332;2022-07-23T08:41:59;24.51;68.16
68842;SHT35;55849;48.482;2.332;2022-07-23T08:45:02;24.55;67.77
68842;SHT35;55849;48.482;2.332;2022-07-23T08:48:06;24.61;68.29
68842;SHT35;55849;48.482;2.332;2022-07-23T08:51:09;24.69;68.09
68842;SHT35;55849;48.482;2.332;2022-07-23T08:54:12;24.76;68.16
68842;SHT35;55849;48.482;2.332;2022-07-23T08:57:14;24.86;67.55
68842;SHT35;55849;48.482;2.332;2022-07-23T09:00:17;24.96;67.23
68842;SHT35;55849;48.482;2.332;2022-07-23T09:03:20;25.02;67.20
68842;SHT35;55849;48.482;2.332;2022-07-23T09:06:23;25.13;67.21
68842;SHT35;55849;48.482;2.332;2022-07-23T09:09:25;25.20;66.36
68842;SHT35;55849;48.482;2.332;2022-07-23T09:12:30;25.26;66.03
68842;SHT35;55849;48.482;2.332;2022-07-23T09:15:32;25.31;65.91
68842;SHT35;55849;48.482;2.332;2022-07-23T09:18:36;25.37;65.91
68842;SHT35;55849;48.482;2.332;2022-07-23T09:21:40;25.42;65.87
68842;SHT35;55849;48.482;2.332;2022-07-23T09:25:03;25.48;65.75
68842;SHT35;55849;48.482;2.332;2022-07-23T09:28:04;25.55;65.51
68842;SHT35;55849;48.482;2.332;2022-07-23T09:31:07;25.61;65.18
68842;SHT35;55849;48.482;2.332;2022-07-23T09:34:12;25.63;65.70
68842;SHT35;55849;48.482;2.332;2022-07-23T09:37:17;25.70;65.60
68842;SHT35;55849;48.482;2.332;2022-07-23T09:40:18;25.75;65.19
68842;SHT35;55849;48.482;2.332;2022-07-23T09:43:26;25.82;64.73
68842;SHT35;55849;48.482;2.332;2022-07-23T09:46:28;25.90;64.26
68842;SHT35;55849;48.482;2.332;2022-07-23T09:49:30;25.98;64.41
68842;SHT35;55849;48.482;2.332;2022-07-23T09:52:35;26.01;64.30
68842;SHT35;55849;48.482;2.332;2022-07-23T09:55:37;26.07;64.05
68842;SHT35;55849;48.482;2.332;2022-07-23T09:58:39;26.14;64.86
68842;SHT35;55849;48.482;2.332;2022-07-23T10:01:46;26.22;64.01
68842;SHT35;55849;48.482;2.332;2022-07-23T10:04:51;26.28;63.74
68842;SHT35;55849;48.482;2.332;2022-07-23T10:07:55;26.34;63.60
68842;SHT35;55849;48.482;2.332;2022-07-23T10:11:00;26.37;62.92
68842;SHT35;55849;48.482;2.332;2022-07-23T10:14:03;26.38;62.83
68842;SHT35;55849;48.482;2.332;2022-07-23T10:17:06;26.38;63.44
68842;SHT35;55849;48.482;2.332;2022-07-23T10:20:08;26.38;63.25
68842;SHT35;55849;48.482;2.332;2022-07-23T10:23:18;26.37;62.92
68842;SHT35;55849;48.482;2.332;2022-07-23T10:26:28;26.41;63.67
68842;SHT35;55849;48.482;2.332;2022-07-23T10:29:42;26.42;62.64
68842;SHT35;55849;48.482;2.332;2022-07-23T10:32:56;26.45;62.54
68842;SHT35;55849;48.482;2.332;2022-07-23T10:36:05;26.53;62.66
68842;SHT35;55849;48.482;2.332;2022-07-23T10:39:15;26.63;62.71
68842;SHT35;55849;48.482;2.332;2022-07-23T10:42:18;26.72;62.04
68842;SHT35;55849;48.482;2.332;2022-07-23T10:45:28;26.83;61.77
68842;SHT35;55849;48.482;2.332;2022-07-23T10:48:30;26.91;61.08
68842;SHT35;55849;48.482;2.332;2022-07-23T10:51:32;26.94;61.23
68842;SHT35;55849;48.482;2.332;2022-07-23T10:54:35;26.96;61.61
68842;SHT35;55849;48.482;2.332;2022-07-23T10:57:48;27.00;61.35
68842;SHT35;55849;48.482;2.332;2022-07-23T11:00:50;26.98;60.48
68842;SHT35;55849;48.482;2.332;2022-07-23T11:03:56;26.96;60.45
68842;SHT35;55849;48.482;2.332;2022-07-23T11:07:08;26.94;60.63
68842;SHT35;55849;48.482;2.332;2022-07-23T11:10:32;26.97;60.89
68842;SHT35;55849;48.482;2.332;2022-07-23T11:13:42;27.05;61.71
68842;SHT35;55849;48.482;2.332;2022-07-23T11:16:46;27.16;60.77
68842;SHT35;55849;48.482;2.332;2022-07-23T11:20:18;27.31;60.98
68842;SHT35;55849;48.482;2.332;2022-07-23T11:23:20;27.45;60.31
68842;SHT35;55849;48.482;2.332;2022-07-23T11:26:42;27.56;60.13
68842;SHT35;55849;48.482;2.332;2022-07-23T11:29:48;27.63;59.61
68842;SHT35;55849;48.482;2.332;2022-07-23T11:32:53;27.65;58.22
68842;SHT35;55849;48.482;2.332;2022-07-23T11:36:02;27.60;58.75
68842;SHT35;55849;48.482;2.332;2022-07-23T11:39:05;27.60;60.02
68842;SHT35;55849;48.482;2.332;2022-07-23T11:42:09;27.69;60.25
68842;SHT35;55849;48.482;2.332;2022-07-23T11:45:10;27.79;58.54
68842;SHT35;55849;48.482;2.332;2022-07-23T11:48:17;27.83;58.25
68842;SHT35;55849;48.482;2.332;2022-07-23T11:51:25;27.87;58.46
68842;SHT35;55849;48.482;2.332;2022-07-23T11:54:27;27.90;59.25
68842;SHT35;55849;48.482;2.332;2022-07-23T11:57:31;27.94;58.94
68842;SHT35;55849;48.482;2.332;2022-07-23T12:00:33;28.04;58.32
68842;SHT35;55849;48.482;2.332;2022-07-23T12:03:35;28.09;57.38
68842;SHT35;55849;48.482;2.332;2022-07-23T12:06:37;28.15;58.65
